Terminal Aerodrome Forecast
Issued by NWS

Home | Current Version | Previous Version | Graphics & Text | Print | Product List | Glossary On
Versions: 1 2 3 4 5 6 7 8 9 10 11 12 13 14
000
FTUS43 KBIS 162300
TAFDIK
TAF
KDIK 162334Z 1700/1724 07010KT P6SM VCSH OVC015
     FM170700 11012KT P6SM OVC025
     FM171800 15018G26KT P6SM BKN060=

USA.gov is the U.S. government's official web portal to all federal, state and local government web resources and services.